Latest Weather Observations for Legendre Island

IDW60801

Issued at 10:32 am WST Thursday 26 May 2016 (issued every 30 minutes, with the page automatically refreshed every 10 minutes)

About weather observations | Map of weather stations | Latest weather observations for WA | Other Formats
Station Details ID: 004095 Name: LEGENDRE ISLAND Lat: -20.36 Lon: 116.84 Height: 29.0 m
Data from the previous 72 hours. | See also: Recent months at Legendre Island
Date/Time
WST
Temp
°C
App
Temp
°C
Dew
Point
Rel
Hum
%
Delta-T
°C
Wind Press
QNH
hPa
Press
MSL
hPa
Rain
since 9 am
mm
Dir
 
Spd
km/h
Gust
km/h
Spd
kts
Gust
kts
26/10:30am 26.6 28.9 22.7 79 2.6 SW 15 20 8 11 1016.0 1015.8 -
26/10:00am 26.4 28.0 22.9 81 2.4 SW 19 22 10 12 1016.2 1016.0 -
26/09:30am 26.1 27.7 23.2 84 2.0 SSW 20 24 11 13 1016.3 1016.1 -
26/09:00am 25.6 27.4 23.5 88 1.4 SSW 20 24 11 13 1016.0 1015.8 -
26/08:30am 25.0 26.7 23.4 91 1.1 SSW 20 26 11 14 1015.5 1015.3 -
26/08:00am 24.7 26.2 23.7 94 0.7 SSW 22 28 12 15 1015.1 1015.0 -
26/07:30am 24.0 24.7 23.0 94 0.7 SSW 24 30 13 16 1014.7 1014.6 -
26/07:00am 23.6 24.3 22.9 96 0.5 SW 24 30 13 16 1014.3 1014.2 -
26/06:30am 23.5 23.7 22.8 96 0.5 SW 26 33 14 18 1014.2 1014.1 -
26/06:00am 23.3 24.2 22.6 96 0.5 SSW 22 26 12 14 1014.1 1014.0 -
26/05:30am 23.5 24.6 22.3 93 0.8 SSW 20 24 11 13 1013.9 1013.8 -
26/05:00am 23.7 25.0 22.3 92 0.9 SW 19 22 10 12 1013.9 1013.8 -
26/04:30am 23.5 24.7 22.1 92 0.9 SW 19 20 10 11 1013.8 1013.7 -
26/04:00am 23.8 24.9 21.9 89 1.3 SW 19 22 10 12 1013.6 1013.5 -
26/03:30am 23.8 24.5 21.5 87 1.5 WSW 20 24 11 13 1013.7 1013.6 -
26/03:00am 23.6 23.7 21.1 86 1.6 SW 22 28 12 15 1013.7 1013.6 -
26/02:30am 23.9 24.1 21.4 86 1.6 WSW 22 26 12 14 1013.9 1013.8 -
26/02:00am 23.9 24.1 21.4 86 1.6 WSW 22 26 12 14 1014.0 1013.9 -
26/01:30am 23.8 24.4 21.1 85 1.8 WSW 19 22 10 12 1014.0 1013.9 -
26/01:00am 23.8 24.6 21.3 86 1.6 WSW 19 24 10 13 1014.1 1014.0 -
26/12:30am 24.0 24.6 21.3 85 1.8 W 20 24 11 13 1014.2 1014.1 -
26/12:00am 23.8 24.4 21.1 85 1.8 WSW 19 22 10 12 1014.1 1014.0 -
 
Date/Time
WST
Temp
°C
App
Temp
°C
Dew
Point
Rel
Hum
%
Delta-T
°C
Wind Press
QNH
hPa
Press
MSL
hPa
Rain
since 9 am
mm
Dir
 
Spd
km/h
Gust
km/h
Spd
kts
Gust
kts
25/11:30pm 24.0 24.1 21.1 84 1.9 WSW 22 26 12 14 1014.1 1014.0 -
25/11:00pm 24.1 24.1 21.0 83 2.0 WSW 22 26 12 14 1014.2 1014.1 -
25/10:30pm 24.2 24.2 20.9 82 2.2 WSW 22 26 12 14 1014.3 1014.2 -
25/10:00pm 24.1 23.9 20.6 81 2.3 W 22 24 12 13 1014.3 1014.2 -
25/09:30pm 24.0 24.3 20.7 82 2.2 WSW 20 24 11 13 1014.3 1014.2 -
25/09:00pm 24.0 24.2 20.5 81 2.3 WSW 20 24 11 13 1014.3 1014.2 -
25/08:30pm 24.1 23.9 20.6 81 2.3 WSW 22 26 12 14 1014.3 1014.2 -
25/08:00pm 23.9 24.2 20.8 83 2.0 WSW 20 24 11 13 1014.2 1014.1 -
25/07:30pm 23.8 24.1 20.5 82 2.1 W 19 22 10 12 1014.0 1013.9 -
25/07:00pm 23.9 24.0 20.4 81 2.3 W 20 24 11 13 1013.6 1013.5 -
25/06:30pm 23.9 24.0 20.0 79 2.5 W 19 22 10 12 1013.3 1013.2 -
25/06:00pm 24.1 24.1 19.8 77 2.8 WSW 19 24 10 13 1013.1 1013.0 -
25/05:30pm 24.6 24.7 19.9 75 3.0 W 19 22 10 12 1013.0 1012.9 -
25/05:00pm 25.2 25.4 20.2 74 3.3 WSW 19 24 10 13 1013.0 1012.9 -
25/04:30pm 25.8 26.1 20.4 72 3.5 WSW 19 22 10 12 1012.7 1012.6 -
25/04:00pm 26.2 27.1 20.8 72 3.6 WSW 17 22 9 12 1012.6 1012.5 -
25/03:30pm 26.5 27.1 20.3 68 4.1 WSW 17 20 9 11 1012.5 1012.4 -
25/03:00pm 27.9 29.4 20.5 64 4.9 W 13 17 7 9 1012.4 1012.3 -
25/02:30pm 27.4 28.9 19.7 63 5.0 W 11 17 6 9 1012.4 1012.3 -
25/02:00pm 27.8 29.5 20.1 63 5.0 W 11 17 6 9 1012.5 1012.4 -
25/01:30pm 27.1 28.7 20.0 65 4.6 W 11 17 6 9 1012.7 1012.6 -
25/01:00pm 27.8 30.2 20.9 66 4.6 W 9 15 5 8 1012.9 1012.8 -
25/12:30pm 27.6 30.2 21.2 68 4.3 W 9 15 5 8 1013.3 1013.2 -
25/12:00pm 27.5 29.9 20.8 67 4.4 SW 9 13 5 7 1013.5 1013.4 -
25/11:30am 27.1 29.4 20.7 68 4.2 WSW 9 15 5 8 1013.8 1013.7 -
25/11:00am 27.0 29.7 21.3 71 3.8 WSW 9 13 5 7 1014.1 1014.0 -
25/10:30am 26.5 29.5 21.3 73 3.5 SW 7 11 4 6 1014.4 1014.3 -
25/10:00am 25.9 28.4 21.1 75 3.2 SSW 9 13 5 7 1014.6 1014.5 -
25/09:30am 25.6 28.3 21.3 77 2.8 SSW 9 13 5 7 1014.6 1014.5 -
25/09:00am 24.8 26.7 21.3 81 2.3 SSW 13 19 7 10 1014.5 1014.4 -
25/08:30am 24.8 27.3 22.5 87 1.5 S 13 17 7 9 1014.3 1014.2 -
25/08:00am 23.9 26.3 23.0 95 0.6 S 15 19 8 10 1014.1 1014.0 -
25/07:30am 23.3 26.9 23.1 99 0.1 SSE 9 11 5 6 1013.9 1013.8 -
25/07:00am 22.4 25.0 21.9 97 0.3 S 11 11 6 6 1013.6 1013.5 -
25/06:30am 22.7 25.6 21.7 94 0.7 S 9 11 5 6 1013.6 1013.5 -
25/06:00am 22.8 24.9 20.9 89 1.2 S 11 13 6 7 1013.2 1013.1 -
25/05:30am 23.1 24.8 20.2 84 1.9 W 11 13 6 7 1012.9 1012.8 -
25/05:00am 23.1 24.5 20.4 85 1.8 WSW 13 15 7 8 1012.6 1012.5 -
25/04:30am 22.9 24.8 20.6 87 1.5 WSW 11 15 6 8 1012.4 1012.3 -
25/04:00am 22.9 24.4 20.6 87 1.5 WSW 13 15 7 8 1012.5 1012.4 -
25/03:30am 23.0 24.7 20.9 88 1.4 WSW 13 17 7 9 1012.5 1012.4 -
25/03:00am 23.1 25.1 20.8 87 1.5 WSW 11 15 6 8 1012.6 1012.5 -
25/02:30am 23.3 25.5 21.2 88 1.4 W 11 15 6 8 1012.8 1012.7 -
25/02:00am 23.4 25.9 21.1 87 1.5 W 9 11 5 6 1013.1 1013.0 -
25/01:30am 23.5 26.1 21.2 87 1.5 W 9 13 5 7 1013.2 1013.1 -
25/01:00am 23.8 26.6 21.5 87 1.5 W 9 13 5 7 1013.5 1013.4 -
25/12:30am 23.6 26.3 21.3 87 1.5 W 9 13 5 7 1013.6 1013.5 -
25/12:00am 23.6 26.3 21.3 87 1.5 W 9 11 5 6 1013.5 1013.4 -
 
Date/Time
WST
Temp
°C
App
Temp
°C
Dew
Point
Rel
Hum
%
Delta-T
°C
Wind Press
QNH
hPa
Press
MSL
hPa
Rain
since 9 am
mm
Dir
 
Spd
km/h
Gust
km/h
Spd
kts
Gust
kts
24/11:30pm 23.4 25.5 20.9 86 1.6 WSW 11 11 6 6 1013.6 1013.5 -
24/11:00pm 23.5 25.9 20.8 85 1.8 W 9 11 5 6 1013.8 1013.7 -
24/10:30pm 23.8 26.6 20.9 84 1.9 W 7 9 4 5 1014.0 1013.9 -
24/10:00pm 23.8 26.5 20.7 83 2.0 WSW 7 9 4 5 1014.1 1014.0 -
24/09:30pm 24.0 26.6 20.5 81 2.3 WSW 7 9 4 5 1014.1 1014.0 -
24/09:00pm 23.9 25.8 19.8 78 2.6 WSW 9 11 5 6 1014.3 1014.2 -
24/08:30pm 24.3 26.7 20.0 77 2.8 W 7 9 4 5 1014.5 1014.4 -
24/08:00pm 24.2 26.5 19.9 77 2.8 WSW 7 9 4 5 1014.4 1014.3 -
24/07:30pm 24.4 26.9 19.9 76 2.9 WSW 6 6 3 3 1014.1 1014.0 -
24/07:00pm 24.6 26.9 19.9 75 3.0 W 7 9 4 5 1013.8 1013.7 -
24/06:30pm 24.7 26.6 19.8 74 3.2 WNW 9 11 5 6 1013.6 1013.5 -
24/06:00pm 25.1 27.1 19.9 73 3.4 NW 9 11 5 6 1013.4 1013.3 -
24/05:30pm 25.6 28.0 19.7 70 3.8 NW 6 9 3 5 1013.4 1013.3 -
24/05:00pm 26.3 28.6 19.9 68 4.2 NNW 7 13 4 7 1013.2 1013.1 -
24/04:30pm 26.9 29.4 20.3 67 4.3 N 7 9 4 5 1013.0 1012.9 -
24/04:00pm 27.2 29.6 20.0 64 4.7 N 7 11 4 6 1012.9 1012.8 -
24/03:30pm 27.1 29.3 19.7 64 4.8 N 7 11 4 6 1012.9 1012.8 -
24/03:00pm 28.2 30.3 20.2 62 5.3 N 9 11 5 6 1012.9 1012.8 -
24/02:30pm 28.1 30.4 19.9 61 5.4 NNW 7 13 4 7 1013.0 1012.9 -
24/02:00pm 27.6 29.7 19.4 61 5.3 N 7 9 4 5 1013.2 1013.1 -
24/01:30pm 28.0 30.4 20.0 61 5.2 NNE 7 9 4 5 1013.6 1013.5 -
24/01:00pm 27.6 30.2 20.4 65 4.7 ENE 7 9 4 5 1013.8 1013.7 -
24/12:30pm 28.1 30.6 21.1 65 4.7 ENE 9 11 5 6 1014.1 1014.0 -
24/12:00pm 28.1 30.5 20.9 65 4.8 ENE 9 11 5 6 1014.5 1014.4 -
24/11:30am 28.5 30.9 21.5 66 4.7 ENE 11 13 6 7 1014.9 1014.8 -
24/11:00am 29.3 32.5 22.3 66 4.7 SE 9 15 5 8 1015.3 1015.2 -
24/10:30am 29.1 32.1 22.6 68 4.4 SE 11 17 6 9 1015.6 1015.4 -
24/10:00am 28.1 30.8 22.1 70 4.0 E 11 15 6 8 1015.6 1015.4 -
24/09:30am 27.5 30.7 23.1 77 3.0 E 11 13 6 7 1015.6 1015.4 -
24/09:00am 27.2 31.4 24.1 83 2.1 ESE 9 13 5 7 1015.3 1015.2 -
24/08:30am 26.0 30.5 24.6 92 1.0 ESE 9 11 5 6 1015.2 1015.1 -
24/08:00am 24.4 28.3 24.2 99 0.1 SE 11 15 6 8 1014.9 1014.8 -
24/07:30am 23.4 26.4 23.4 100 0.0 SSE 13 17 7 9 1014.8 1014.7 -
24/07:00am 22.7 24.6 22.7 100 0.0 SSE 17 17 9 9 1014.7 1014.6 -
24/06:30am 22.5 24.9 22.2 98 0.2 SSE 13 15 7 8 1014.5 1014.4 -
24/06:00am 22.5 25.0 21.8 96 0.5 SSE 11 13 6 7 1014.3 1014.2 -
24/05:30am 22.4 24.6 21.2 93 0.8 SSE 11 13 6 7 1014.0 1013.9 -
24/05:00am 22.4 24.3 20.5 89 1.2 SSE 11 13 6 7 1013.9 1013.8 -
24/04:30am 22.8 24.9 20.1 85 1.7 SSE 9 11 5 6 1013.8 1013.7 -
24/04:00am 23.1 25.3 19.7 81 2.2 S 7 9 4 5 1013.8 1013.7 -
24/03:30am 23.5 25.7 19.2 77 2.7 SSE 6 7 3 4 1014.0 1013.9 -
24/03:00am 23.7 25.7 18.8 74 3.1 SE 6 6 3 3 1013.9 1013.8 -
24/02:30am 24.0 26.8 18.0 69 3.8 CALM 0 4 0 2 1013.7 1013.6 -
24/02:00am 24.7 27.6 18.2 67 4.1 CALM 0 0 0 0 1014.0 1013.9 -
24/01:30am 25.2 27.8 18.4 66 4.3 NNW 2 4 1 2 1014.1 1014.0 -
24/01:00am 25.1 27.4 18.5 67 4.2 N 4 6 2 3 1014.2 1014.1 -
24/12:30am 25.2 27.4 18.4 66 4.3 NNW 4 6 2 3 1014.3 1014.2 -
24/12:00am 24.7 26.1 17.7 65 4.4 NW 7 11 4 6 1014.3 1014.2 -
 
Date/Time
WST
Temp
°C
App
Temp
°C
Dew
Point
Rel
Hum
%
Delta-T
°C
Wind Press
QNH
hPa
Press
MSL
hPa
Rain
since 9 am
mm
Dir
 
Spd
km/h
Gust
km/h
Spd
kts
Gust
kts
23/11:30pm 24.7 25.7 17.7 65 4.4 NNW 9 11 5 6 1014.4 1014.3 -
23/11:00pm 25.8 26.0 18.5 64 4.6 N 15 17 8 9 1014.3 1014.2 -
23/10:30pm 25.7 26.1 18.9 66 4.3 N 15 19 8 10 1014.4 1014.3 -
23/10:00pm 25.8 25.7 18.7 65 4.5 N 17 19 9 10 1014.2 1014.1 -
23/09:30pm 25.7 25.8 19.1 67 4.2 N 17 20 9 11 1014.3 1014.2 -
23/09:00pm 25.6 25.8 18.5 65 4.5 N 15 17 8 9 1014.6 1014.5 -
23/08:30pm 25.8 26.2 19.0 66 4.4 N 15 17 8 9 1014.6 1014.5 -
23/08:00pm 25.7 25.9 18.6 65 4.5 NNW 15 19 8 10 1014.6 1014.5 -
23/07:30pm 25.7 25.9 18.6 65 4.5 N 15 20 8 11 1014.6 1014.5 -
23/07:00pm 25.7 25.2 18.6 65 4.5 N 19 20 10 11 1014.3 1014.2 -
23/06:30pm 25.8 25.3 18.7 65 4.5 N 19 20 10 11 1014.0 1013.9 -
23/06:00pm 25.7 25.3 18.1 63 4.8 NNE 17 20 9 11 1013.9 1013.8 -
23/05:30pm 25.9 25.8 17.8 61 5.1 NNE 15 19 8 10 1013.8 1013.7 -
23/05:00pm 26.5 25.8 17.3 57 5.8 NNE 17 20 9 11 1013.7 1013.6 -
23/04:30pm 26.9 25.9 16.5 53 6.4 NE 17 20 9 11 1013.8 1013.7 -
23/04:00pm 27.2 26.0 17.1 54 6.3 NE 19 22 10 12 1013.8 1013.7 -
23/03:30pm 27.3 25.5 16.0 50 7.0 NE 20 24 11 13 1013.8 1013.7 -
23/03:00pm 27.5 24.9 15.8 48 7.2 ENE 24 30 13 16 1013.9 1013.8 -
23/02:30pm 27.4 23.7 15.1 47 7.5 ENE 28 32 15 17 1014.0 1013.9 -
23/02:00pm 27.8 26.0 16.1 49 7.2 ENE 20 26 11 14 1014.5 1014.4 -
23/01:30pm 27.6 25.3 15.6 48 7.3 E 22 26 12 14 1015.0 1014.9 -
23/01:00pm 27.5 24.3 15.2 47 7.5 E 26 32 14 17 1015.3 1015.2 -
23/12:30pm 27.1 23.7 15.8 50 6.9 E 28 35 15 19 1015.7 1015.5 -
23/12:00pm 27.0 23.2 15.7 50 6.9 E 30 35 16 19 1016.0 1015.8 -
23/11:30am 26.9 22.2 15.9 51 6.7 E 35 43 19 23 1016.1 1015.9 -
23/11:00am 26.5 20.8 15.2 49 6.8 E 39 46 21 25 1015.7 1015.5 -

Other Formats:

Comma delimited format used in spreadsheet applications
http://www.bom.gov.au/fwo/IDW60801/IDW60801.94307.axf

JavaScript Object Notation format (JSON) in row-major order
http://www.bom.gov.au/fwo/IDW60801/IDW60801.94307.json